Zion National Park, Utah
Current Conditions -  °F | °C
As of 6:35 PM on Wednesday 26 Nov 2014 (Local Time) from KAZC Reporting Station
Clear Clear  
Wind Chill: 42°   Ceiling: Unl
Heat Index: 42°   Visibility: 10mi
Dew Point: 22°   Wind: 3mph
Humidity: 44%   Direction: 20°NNE
Pressure: 30.42"   Gusts: NA
Location:  37.1888°N, 113°W
Report Text: KAZC 270135Z AUTO 02003KT 10SM CLR 06/M06 A3042 RMK AO2 T00581058
Loading
Personal Weather Stations






























Interactive Weather Map New forecast layout! Learn more

10-Day Weather Forecast

Advertisements
Track Severe Weather on mobile